• Join FlightAware (Why Join?)
  • Login
  • US Flag 
02:52PM EST


 

Airport Tracker/Info


-or-


 

Live Flight TrackerFlight Track Log ✈ SWA199 ✈ 24-Apr-2012 ✈ KBOS - KBWI

Flight Track Log - Related Links

Times and Time Zones

All times are in EDT time to prevent confusion due to time zone crossing. See the SWA199 flight status page for this flight to view local times or setup timezone preferences in your user account.

Time Position Orientation Groundspeed Altitude Reporting Facility
EDT Latitude Longitude Course Direction KTS MPH feet Rate Location/Type
05:15PM 42.3500 -71.0167 104° East 144 166 1,400  Level Boston TRACON
05:17PM 42.3272 -70.8900 91° East 256 295 5,400 2,460 Climbing Boston Center
05:18PM 42.3256 -70.7719 138° Southeast 262 302 8,400 2,880 Climbing Boston Center
05:19PM 42.2683 -70.7033 218° Southwest 248 285 11,200 2,520 Climbing Boston Center
05:20PM 42.2089 -70.7667 260° West 201 231 13,500 1,500 Climbing Boston Center
05:21PM 42.1919 -70.8906 258° West 239 275 14,200 1,500 Climbing Boston Center
05:22PM 42.1706 -71.0283 263° West 319 367 16,600 2,640 Climbing Boston Center
05:23PM 42.1597 -71.1461 259° West 350 403 19,500 2,340 Climbing Boston Center
05:24PM 42.1403 -71.2781 259° West 362 417 21,300 1,800 Climbing Boston Center
05:25PM 42.1208 -71.4186 259° West 374 430 23,100 1,920 Climbing Boston Center
05:26PM 42.0992 -71.5728 259° West 384 442 25,200 1,740 Climbing Boston Center
05:27PM 42.0772 -71.7242 259° West 394 453 26,600 1,440 Climbing Boston Center
05:28PM 42.0550 -71.8725 258° West 399 459 28,100 1,440 Climbing Boston Center
05:29PM 42.0308 -72.0236 259° West 416 479 29,500 1,200 Climbing Boston Center
05:30PM 42.0083 -72.1803 253° West 421 484 30,600 1,260 Climbing Boston Center
05:31PM 41.9753 -72.3283 233° Southwest 421 484 32,100 1,380 Climbing Boston Center
05:32PM 41.9086 -72.4486 234° Southwest 404 465 33,400 960 Climbing Boston Center
05:33PM 41.8564 -72.5461 234° Southwest 404 465 34,100 300 Climbing Boston Center
05:34PM 41.7833 -72.6794 234° Southwest 409 471 34,000 -60 Descending Boston Center
05:35PM 41.7161 -72.8017 233° Southwest 409 471 34,000  Level Boston Center
05:36PM 41.6469 -72.9236 234° Southwest 409 471 34,000  Level Boston Center
05:37PM 41.5797 -73.0478 234° Southwest 415 478 34,000  Level Boston Center
05:39PM 41.4428 -73.2981 233° Southwest 415 478 34,000  Level New York Center
05:40PM 41.3714 -73.4225 233° Southwest 421 484 34,000  Level New York Center
05:41PM 41.3019 -73.5439 232° Southwest 421 484 34,000  Level New York Center
05:42PM 41.2303 -73.6678 232° Southwest 421 484 34,000  Level New York Center
05:43PM 41.1583 -73.7889 231° Southwest 427 491 34,000  Level New York Center
05:44PM 41.0844 -73.9119 232° Southwest 432 497 34,000  Level New York Center
05:45PM 41.0122 -74.0353 231° Southwest 432 497 34,000 -120 Level New York Center
05:46PM 40.9381 -74.1553 233° Southwest 432 497 33,800 -660 Descending New York Center
05:47PM 40.8611 -74.2914 231° Southwest 432 497 32,700 -1,080 Descending New York Center
05:48PM 40.7867 -74.4108 231° Southwest 432 497 31,700 -1,080 Descending New York Center
05:49PM 40.7142 -74.5300 232° Southwest 432 497 30,600 -1,080 Descending New York Center
05:50PM 40.6439 -74.6467 230° Southwest 432 497 29,600 -1,020 Descending New York Center
05:51PM 40.5689 -74.7653 226° Southwest 427 491 28,600 -900 Descending New York Center
05:52PM 40.4947 -74.8672 227° Southwest 432 497 27,800 -1,020 Descending New York Center
05:53PM 40.4069 -74.9903 228° Southwest 425 489 26,700 -1,020 Descending New York Center
05:54PM 40.3389 -75.0894 226° Southwest 425 489 25,800 -1,020 Descending New York Center
05:55PM 40.2508 -75.2092 227° Southwest 419 482 24,700 -1,080 Descending New York Center
05:56PM 40.1806 -75.3081 228° Southwest 405 466 23,700 -1,080 Descending New York Center
05:57PM 40.1100 -75.4092 227° Southwest 395 455 22,700 -1,020 Descending New York Center
05:58PM 40.0392 -75.5075 228° Southwest 390 449 21,700 -960 Descending New York Center
05:59PM 39.9683 -75.6083 227° Southwest 384 442 20,800 -960 Descending New York Center
06:00PM 39.8975 -75.7089 236° Southwest 384 442 19,800 -960 Descending New York Center
06:01PM 39.8475 -75.8056 236° Southwest 378 435 18,900 -1,500 Descending New York Center
06:02PM 39.7931 -75.9125 235° Southwest 363 418 16,800 -2,160 Descending New York Center
06:04PM 39.6667 -76.1500 224° Southwest 305 351 11,800 -1,920 Descending Potomac TRACON
06:05PM 39.6000 -76.2333 218° Southwest 269 310 10,400 -1,500 Descending Potomac TRACON
06:06PM 39.5500 -76.2833 218° Southwest 270 311 8,900 -1,500 Descending Potomac TRACON
06:07PM 39.4833 -76.3500 218° Southwest 265 305 7,400 -1,260 Descending Potomac TRACON
06:08PM 39.4333 -76.4000 201° Southwest 258 297 6,300 -1,080 Descending Potomac TRACON
06:09PM 39.3667 -76.4333 201° Southwest 257 296 5,400 -1,080 Descending Potomac TRACON
06:10PM 39.3000 -76.4667 191° South 237 273 4,200 -1,020 Descending Potomac TRACON
06:11PM 39.2333 -76.4833 191° South 236 272 3,300 -600 Descending Potomac TRACON
06:12PM 39.1667 -76.5000 207° Southwest 210 242 3,000 -720 Descending Potomac TRACON
06:13PM 39.1167 -76.5333 252° West 184 212 1,900 -600 Descending Potomac TRACON
06:14PM 39.1000 -76.6000 252° West 179 206 1,800 -120 Descending Potomac TRACON